world map with OKD marked

OKD - Airport

This information may not be accurate or current and is not valid for navigation or flight planning. No warranty of fitness for any purpose is made or implied.

flag of Hokkaidoflag of Japan

Donate via PayPal

Additional information is available on the NEW Great Circle Mapper

Location
City:  Sapporo, Hokkaido, Japan
Name:Okadama Airport
ICAO / IATA:RJCO / OKD

Details
Type:Airport (Aerodrome, Airfield)
Use:Public/Civil, Military
Latitude:43°06'58"N (43.116139)
Longitude:141°22'49"E (141.380220)
Datum:WGS 1984
Elevation:25 ft (8 m)
Runways:1
Longest:4920 × 148 ft (1500 × 45 m)

Time
Timezone:UTC+9 (DST+11)
Local Time:

Weather
METAR:RJCO  041100Z 29021G33KT 4500 -SHSN BLSN FEW010 SCT020 BKN040 M07/M11 Q1010

Related Locations
Nearby:
Farthest:SAVU: 12065 mi / 19416 km
Comodoro Rivadavia [Comodoro Rivadavia UIR], AR

Find:

   beyond  
but within

Other Information
Maps:
Links:
Sources:

  


 


Great Circle Mapper   Great Circle Mapper
Great Circle Mapper FAQ   Great Circle Mapper FAQ
  Karl's Home Page
KLSē   KLSē Home
   GC on Facebook
Airlines of the World   Airlines of the World
Donate via PayPal


Copyright © 2004-2020, Karl L. Swartz. All rights reserved.
All trademarks mentioned herein belong to their respective owners.

Please see credits for attribution and copyright information.

Karl Swartz <karl@kls2.com>
  Powered by FreeBSD
Valid HTML 4.01!
Labeled with ICRA
hCard Microformat
Geo Microformat